sensor_id;sensor_type;location;lat;lon;timestamp;P1;durP1;ratioP1;P2;durP2;ratioP2
44137;SDS011;29800;55.942;37.314;2023-11-22T00:01:16;5.15;;;2.70;;
44137;SDS011;29800;55.942;37.314;2023-11-22T00:03:42;4.47;;;2.50;;
44137;SDS011;29800;55.942;37.314;2023-11-22T00:06:08;4.55;;;2.33;;
44137;SDS011;29800;55.942;37.314;2023-11-22T00:08:34;5.95;;;2.53;;
44137;SDS011;29800;55.942;37.314;2023-11-22T00:11:00;5.55;;;2.35;;
44137;SDS011;29800;55.942;37.314;2023-11-22T00:13:27;5.47;;;2.55;;
44137;SDS011;29800;55.942;37.314;2023-11-22T00:15:53;6.07;;;2.58;;
44137;SDS011;29800;55.942;37.314;2023-11-22T00:18:19;4.90;;;2.72;;
44137;SDS011;29800;55.942;37.314;2023-11-22T00:20:45;5.15;;;2.42;;
44137;SDS011;29800;55.942;37.314;2023-11-22T00:23:14;4.60;;;2.40;;
44137;SDS011;29800;55.942;37.314;2023-11-22T00:25:40;5.50;;;2.50;;
44137;SDS011;29800;55.942;37.314;2023-11-22T00:28:06;5.35;;;2.55;;
44137;SDS011;29800;55.942;37.314;2023-11-22T00:30:32;5.65;;;2.60;;
44137;SDS011;29800;55.942;37.314;2023-11-22T00:32:58;5.95;;;2.90;;
44137;SDS011;29800;55.942;37.314;2023-11-22T00:35:25;5.40;;;2.58;;
44137;SDS011;29800;55.942;37.314;2023-11-22T00:37:51;6.07;;;2.92;;
44137;SDS011;29800;55.942;37.314;2023-11-22T00:40:17;5.13;;;2.65;;
44137;SDS011;29800;55.942;37.314;2023-11-22T00:42:43;6.05;;;3.10;;
44137;SDS011;29800;55.942;37.314;2023-11-22T00:45:10;6.95;;;3.03;;
44137;SDS011;29800;55.942;37.314;2023-11-22T00:47:37;7.82;;;3.20;;
44137;SDS011;29800;55.942;37.314;2023-11-22T00:50:05;5.32;;;2.92;;
44137;SDS011;29800;55.942;37.314;2023-11-22T00:52:31;6.90;;;3.10;;
44137;SDS011;29800;55.942;37.314;2023-11-22T00:54:58;5.45;;;2.92;;
44137;SDS011;29800;55.942;37.314;2023-11-22T00:57:24;4.70;;;2.78;;
44137;SDS011;29800;55.942;37.314;2023-11-22T00:59:53;5.25;;;2.90;;
44137;SDS011;29800;55.942;37.314;2023-11-22T01:02:22;7.03;;;3.33;;
44137;SDS011;29800;55.942;37.314;2023-11-22T01:04:48;5.88;;;2.95;;
44137;SDS011;29800;55.942;37.314;2023-11-22T01:07:14;3.90;;;2.20;;
44137;SDS011;29800;55.942;37.314;2023-11-22T01:09:41;4.75;;;2.60;;
44137;SDS011;29800;55.942;37.314;2023-11-22T01:12:07;4.45;;;2.30;;
44137;SDS011;29800;55.942;37.314;2023-11-22T01:14:35;5.43;;;2.42;;
44137;SDS011;29800;55.942;37.314;2023-11-22T01:17:01;4.28;;;2.33;;
44137;SDS011;29800;55.942;37.314;2023-11-22T01:19:28;21.23;;;10.35;;
44137;SDS011;29800;55.942;37.314;2023-11-22T01:21:54;5.90;;;2.38;;
44137;SDS011;29800;55.942;37.314;2023-11-22T01:24:20;6.55;;;2.60;;
44137;SDS011;29800;55.942;37.314;2023-11-22T01:26:47;4.38;;;2.20;;
44137;SDS011;29800;55.942;37.314;2023-11-22T01:29:13;4.93;;;2.17;;
44137;SDS011;29800;55.942;37.314;2023-11-22T01:31:39;4.07;;;2.30;;
44137;SDS011;29800;55.942;37.314;2023-11-22T01:34:07;6.10;;;2.65;;
44137;SDS011;29800;55.942;37.314;2023-11-22T01:36:34;7.07;;;2.63;;
44137;SDS011;29800;55.942;37.314;2023-11-22T01:39:00;5.65;;;2.67;;
44137;SDS011;29800;55.942;37.314;2023-11-22T01:41:27;7.07;;;2.97;;
44137;SDS011;29800;55.942;37.314;2023-11-22T01:43:55;4.82;;;2.20;;
44137;SDS011;29800;55.942;37.314;2023-11-22T01:46:24;6.53;;;2.55;;
44137;SDS011;29800;55.942;37.314;2023-11-22T01:48:53;6.60;;;2.67;;
44137;SDS011;29800;55.942;37.314;2023-11-22T01:51:21;5.75;;;2.85;;
44137;SDS011;29800;55.942;37.314;2023-11-22T01:53:50;6.75;;;2.47;;
44137;SDS011;29800;55.942;37.314;2023-11-22T01:56:22;8.93;;;3.22;;
44137;SDS011;29800;55.942;37.314;2023-11-22T01:58:52;5.43;;;2.65;;
44137;SDS011;29800;55.942;37.314;2023-11-22T02:01:21;5.95;;;2.72;;
44137;SDS011;29800;55.942;37.314;2023-11-22T02:03:47;6.47;;;2.50;;
44137;SDS011;29800;55.942;37.314;2023-11-22T02:06:17;4.57;;;2.50;;
44137;SDS011;29800;55.942;37.314;2023-11-22T02:08:44;5.88;;;3.03;;
44137;SDS011;29800;55.942;37.314;2023-11-22T02:11:10;6.72;;;2.53;;
44137;SDS011;29800;55.942;37.314;2023-11-22T02:13:37;5.13;;;2.45;;
44137;SDS011;29800;55.942;37.314;2023-11-22T02:16:03;4.85;;;2.60;;
44137;SDS011;29800;55.942;37.314;2023-11-22T02:18:30;5.72;;;2.83;;
44137;SDS011;29800;55.942;37.314;2023-11-22T02:20:57;5.18;;;2.50;;
44137;SDS011;29800;55.942;37.314;2023-11-22T02:23:23;5.03;;;2.60;;
44137;SDS011;29800;55.942;37.314;2023-11-22T02:25:50;6.45;;;2.28;;
44137;SDS011;29800;55.942;37.314;2023-11-22T02:28:17;5.13;;;2.30;;
44137;SDS011;29800;55.942;37.314;2023-11-22T02:30:43;4.32;;;2.30;;
44137;SDS011;29800;55.942;37.314;2023-11-22T02:33:10;4.35;;;2.05;;
44137;SDS011;29800;55.942;37.314;2023-11-22T02:35:36;6.22;;;2.67;;
44137;SDS011;29800;55.942;37.314;2023-11-22T02:38:03;5.65;;;2.40;;
44137;SDS011;29800;55.942;37.314;2023-11-22T02:40:31;7.63;;;2.92;;
44137;SDS011;29800;55.942;37.314;2023-11-22T02:42:58;5.68;;;2.50;;
44137;SDS011;29800;55.942;37.314;2023-11-22T02:45:27;6.07;;;2.92;;
44137;SDS011;29800;55.942;37.314;2023-11-22T02:47:55;7.47;;;3.00;;
44137;SDS011;29800;55.942;37.314;2023-11-22T02:50:21;7.28;;;3.00;;
44137;SDS011;29800;55.942;37.314;2023-11-22T02:52:47;5.57;;;3.00;;
44137;SDS011;29800;55.942;37.314;2023-11-22T02:55:14;6.85;;;2.92;;
44137;SDS011;29800;55.942;37.314;2023-11-22T02:57:41;6.53;;;2.90;;
44137;SDS011;29800;55.942;37.314;2023-11-22T03:00:09;7.15;;;3.30;;
44137;SDS011;29800;55.942;37.314;2023-11-22T03:02:41;8.88;;;3.13;;
44137;SDS011;29800;55.942;37.314;2023-11-22T03:05:08;7.75;;;3.20;;
44137;SDS011;29800;55.942;37.314;2023-11-22T03:07:41;6.57;;;2.90;;
44137;SDS011;29800;55.942;37.314;2023-11-22T03:10:07;8.02;;;3.30;;
44137;SDS011;29800;55.942;37.314;2023-11-22T03:12:34;6.57;;;3.22;;
44137;SDS011;29800;55.942;37.314;2023-11-22T03:15:01;6.53;;;2.88;;
44137;SDS011;29800;55.942;37.314;2023-11-22T03:17:33;6.60;;;3.13;;
44137;SDS011;29800;55.942;37.314;2023-11-22T03:19:59;7.78;;;3.70;;
44137;SDS011;29800;55.942;37.314;2023-11-22T03:22:27;7.30;;;3.50;;
44137;SDS011;29800;55.942;37.314;2023-11-22T03:24:57;8.65;;;4.13;;
44137;SDS011;29800;55.942;37.314;2023-11-22T03:27:24;7.35;;;3.75;;
44137;SDS011;29800;55.942;37.314;2023-11-22T03:29:52;8.77;;;3.47;;
44137;SDS011;29800;55.942;37.314;2023-11-22T03:32:18;8.18;;;3.72;;
44137;SDS011;29800;55.942;37.314;2023-11-22T03:34:44;10.25;;;3.63;;
44137;SDS011;29800;55.942;37.314;2023-11-22T03:37:11;8.25;;;3.72;;
44137;SDS011;29800;55.942;37.314;2023-11-22T03:39:37;7.85;;;3.90;;
44137;SDS011;29800;55.942;37.314;2023-11-22T03:42:03;10.98;;;4.00;;
44137;SDS011;29800;55.942;37.314;2023-11-22T03:44:30;9.82;;;4.13;;
44137;SDS011;29800;55.942;37.314;2023-11-22T03:46:57;9.75;;;4.00;;
44137;SDS011;29800;55.942;37.314;2023-11-22T03:49:23;7.00;;;3.63;;
44137;SDS011;29800;55.942;37.314;2023-11-22T03:51:49;7.40;;;3.92;;
44137;SDS011;29800;55.942;37.314;2023-11-22T03:54:16;8.48;;;3.95;;
44137;SDS011;29800;55.942;37.314;2023-11-22T03:56:42;7.93;;;4.10;;
44137;SDS011;29800;55.942;37.314;2023-11-22T03:59:09;9.50;;;4.90;;
44137;SDS011;29800;55.942;37.314;2023-11-22T04:01:36;8.18;;;3.70;;
44137;SDS011;29800;55.942;37.314;2023-11-22T04:04:02;8.20;;;4.18;;
44137;SDS011;29800;55.942;37.314;2023-11-22T04:06:28;9.82;;;4.97;;
44137;SDS011;29800;55.942;37.314;2023-11-22T04:08:54;10.18;;;4.47;;
44137;SDS011;29800;55.942;37.314;2023-11-22T04:11:20;8.55;;;4.13;;
44137;SDS011;29800;55.942;37.314;2023-11-22T04:13:47;8.55;;;4.18;;
44137;SDS011;29800;55.942;37.314;2023-11-22T04:16:13;9.63;;;4.38;;
44137;SDS011;29800;55.942;37.314;2023-11-22T04:18:40;7.85;;;4.20;;
44137;SDS011;29800;55.942;37.314;2023-11-22T04:21:07;9.65;;;4.32;;
44137;SDS011;29800;55.942;37.314;2023-11-22T04:23:35;9.50;;;4.40;;
44137;SDS011;29800;55.942;37.314;2023-11-22T04:26:04;10.55;;;4.35;;
44137;SDS011;29800;55.942;37.314;2023-11-22T04:28:33;10.98;;;4.85;;
44137;SDS011;29800;55.942;37.314;2023-11-22T04:31:00;9.63;;;4.03;;
44137;SDS011;29800;55.942;37.314;2023-11-22T04:33:27;10.13;;;4.68;;
44137;SDS011;29800;55.942;37.314;2023-11-22T04:35:54;8.60;;;3.80;;
44137;SDS011;29800;55.942;37.314;2023-11-22T04:38:20;9.63;;;3.97;;
44137;SDS011;29800;55.942;37.314;2023-11-22T04:40:47;10.25;;;4.53;;
44137;SDS011;29800;55.942;37.314;2023-11-22T04:43:13;10.38;;;4.40;;
44137;SDS011;29800;55.942;37.314;2023-11-22T04:45:40;9.85;;;4.80;;
44137;SDS011;29800;55.942;37.314;2023-11-22T04:48:06;9.10;;;4.35;;
44137;SDS011;29800;55.942;37.314;2023-11-22T04:50:33;10.63;;;5.30;;
44137;SDS011;29800;55.942;37.314;2023-11-22T04:52:59;7.93;;;4.25;;
44137;SDS011;29800;55.942;37.314;2023-11-22T04:55:29;15.27;;;5.45;;
44137;SDS011;29800;55.942;37.314;2023-11-22T04:57:55;9.68;;;4.50;;
44137;SDS011;29800;55.942;37.314;2023-11-22T05:00:21;7.68;;;3.55;;
44137;SDS011;29800;55.942;37.314;2023-11-22T05:02:51;9.82;;;3.90;;
44137;SDS011;29800;55.942;37.314;2023-11-22T05:05:17;8.70;;;3.17;;
44137;SDS011;29800;55.942;37.314;2023-11-22T05:07:43;9.27;;;3.67;;
44137;SDS011;29800;55.942;37.314;2023-11-22T05:10:13;5.95;;;2.63;;
44137;SDS011;29800;55.942;37.314;2023-11-22T05:12:39;8.60;;;3.17;;
44137;SDS011;29800;55.942;37.314;2023-11-22T05:15:06;8.45;;;3.28;;
44137;SDS011;29800;55.942;37.314;2023-11-22T05:17:33;8.32;;;3.20;;
44137;SDS011;29800;55.942;37.314;2023-11-22T05:20:00;7.60;;;3.45;;
44137;SDS011;29800;55.942;37.314;2023-11-22T05:22:26;8.85;;;3.28;;
44137;SDS011;29800;55.942;37.314;2023-11-22T05:24:52;7.40;;;3.20;;
44137;SDS011;29800;55.942;37.314;2023-11-22T05:27:18;7.30;;;3.20;;
44137;SDS011;29800;55.942;37.314;2023-11-22T05:29:45;3.75;;;1.77;;
44137;SDS011;29800;55.942;37.314;2023-11-22T05:32:11;5.68;;;2.63;;
44137;SDS011;29800;55.942;37.314;2023-11-22T05:34:37;4.93;;;2.35;;
44137;SDS011;29800;55.942;37.314;2023-11-22T05:37:06;6.07;;;2.55;;
44137;SDS011;29800;55.942;37.314;2023-11-22T05:39:33;5.85;;;2.63;;
44137;SDS011;29800;55.942;37.314;2023-11-22T05:41:59;6.00;;;2.55;;
44137;SDS011;29800;55.942;37.314;2023-11-22T05:44:26;3.63;;;1.70;;
44137;SDS011;29800;55.942;37.314;2023-11-22T05:46:53;3.97;;;1.45;;
44137;SDS011;29800;55.942;37.314;2023-11-22T05:49:20;2.35;;;1.10;;
44137;SDS011;29800;55.942;37.314;2023-11-22T05:51:46;3.38;;;1.33;;
44137;SDS011;29800;55.942;37.314;2023-11-22T05:54:12;4.65;;;1.73;;
44137;SDS011;29800;55.942;37.314;2023-11-22T05:56:38;2.13;;;1.10;;
44137;SDS011;29800;55.942;37.314;2023-11-22T05:59:05;3.15;;;1.40;;
44137;SDS011;29800;55.942;37.314;2023-11-22T06:01:31;2.97;;;1.23;;
44137;SDS011;29800;55.942;37.314;2023-11-22T06:03:58;3.20;;;1.20;;
44137;SDS011;29800;55.942;37.314;2023-11-22T06:06:24;2.55;;;1.20;;
44137;SDS011;29800;55.942;37.314;2023-11-22T06:08:50;3.45;;;1.30;;
44137;SDS011;29800;55.942;37.314;2023-11-22T06:11:16;1.33;;;0.60;;
44137;SDS011;29800;55.942;37.314;2023-11-22T06:13:42;2.05;;;0.90;;
44137;SDS011;29800;55.942;37.314;2023-11-22T06:16:08;1.50;;;0.90;;
44137;SDS011;29800;55.942;37.314;2023-11-22T06:18:35;1.90;;;0.98;;
44137;SDS011;29800;55.942;37.314;2023-11-22T06:21:07;1.27;;;0.80;;
44137;SDS011;29800;55.942;37.314;2023-11-22T06:23:35;1.95;;;1.08;;
44137;SDS011;29800;55.942;37.314;2023-11-22T06:26:02;3.67;;;1.30;;
44137;SDS011;29800;55.942;37.314;2023-11-22T06:28:29;1.77;;;1.02;;
44137;SDS011;29800;55.942;37.314;2023-11-22T06:30:56;3.30;;;1.67;;
44137;SDS011;29800;55.942;37.314;2023-11-22T06:33:22;2.47;;;1.40;;
44137;SDS011;29800;55.942;37.314;2023-11-22T06:35:49;3.33;;;1.85;;
44137;SDS011;29800;55.942;37.314;2023-11-22T06:38:15;2.45;;;1.40;;
44137;SDS011;29800;55.942;37.314;2023-11-22T06:40:42;1.35;;;0.85;;
44137;SDS011;29800;55.942;37.314;2023-11-22T06:43:10;1.80;;;0.80;;
44137;SDS011;29800;55.942;37.314;2023-11-22T06:45:36;1.63;;;0.90;;
44137;SDS011;29800;55.942;37.314;2023-11-22T06:48:03;1.92;;;0.80;;
44137;SDS011;29800;55.942;37.314;2023-11-22T06:50:29;2.83;;;1.20;;
44137;SDS011;29800;55.942;37.314;2023-11-22T06:52:56;2.78;;;1.10;;
44137;SDS011;29800;55.942;37.314;2023-11-22T06:55:22;2.85;;;1.10;;
44137;SDS011;29800;55.942;37.314;2023-11-22T06:57:48;2.40;;;1.08;;
44137;SDS011;29800;55.942;37.314;2023-11-22T07:00:16;3.05;;;1.30;;
44137;SDS011;29800;55.942;37.314;2023-11-22T07:02:43;3.15;;;1.30;;
44137;SDS011;29800;55.942;37.314;2023-11-22T07:05:09;2.13;;;1.20;;
44137;SDS011;29800;55.942;37.314;2023-11-22T07:07:38;3.03;;;1.50;;
44137;SDS011;29800;55.942;37.314;2023-11-22T07:10:05;3.45;;;1.50;;
44137;SDS011;29800;55.942;37.314;2023-11-22T07:12:33;2.53;;;1.30;;
44137;SDS011;29800;55.942;37.314;2023-11-22T07:15:03;4.32;;;1.38;;
44137;SDS011;29800;55.942;37.314;2023-11-22T07:17:34;1.70;;;0.93;;
44137;SDS011;29800;55.942;37.314;2023-11-22T07:20:01;3.90;;;1.75;;
44137;SDS011;29800;55.942;37.314;2023-11-22T07:22:32;4.18;;;1.80;;
44137;SDS011;29800;55.942;37.314;2023-11-22T07:25:00;2.75;;;1.65;;
44137;SDS011;29800;55.942;37.314;2023-11-22T07:27:33;4.03;;;1.80;;
44137;SDS011;29800;55.942;37.314;2023-11-22T07:29:59;3.63;;;1.70;;
44137;SDS011;29800;55.942;37.314;2023-11-22T07:32:29;5.53;;;1.60;;
44137;SDS011;29800;55.942;37.314;2023-11-22T07:34:55;2.55;;;1.35;;
44137;SDS011;29800;55.942;37.314;2023-11-22T07:37:22;2.60;;;1.38;;
44137;SDS011;29800;55.942;37.314;2023-11-22T07:39:50;3.88;;;1.35;;
44137;SDS011;29800;55.942;37.314;2023-11-22T07:42:18;2.22;;;1.40;;
44137;SDS011;29800;55.942;37.314;2023-11-22T07:44:45;3.92;;;1.60;;
44137;SDS011;29800;55.942;37.314;2023-11-22T07:47:12;3.45;;;1.65;;
44137;SDS011;29800;55.942;37.314;2023-11-22T07:49:39;5.80;;;1.77;;
44137;SDS011;29800;55.942;37.314;2023-11-22T07:52:08;3.47;;;1.65;;
44137;SDS011;29800;55.942;37.314;2023-11-22T07:54:40;4.60;;;1.70;;
44137;SDS011;29800;55.942;37.314;2023-11-22T07:57:07;6.10;;;2.05;;
44137;SDS011;29800;55.942;37.314;2023-11-22T07:59:33;3.50;;;1.52;;
44137;SDS011;29800;55.942;37.314;2023-11-22T08:01:59;3.20;;;1.63;;
44137;SDS011;29800;55.942;37.314;2023-11-22T08:04:27;4.97;;;1.90;;
44137;SDS011;29800;55.942;37.314;2023-11-22T08:06:54;2.97;;;1.60;;
44137;SDS011;29800;55.942;37.314;2023-11-22T08:09:23;2.40;;;1.33;;
44137;SDS011;29800;55.942;37.314;2023-11-22T08:11:49;2.90;;;1.23;;
44137;SDS011;29800;55.942;37.314;2023-11-22T08:14:17;2.75;;;1.20;;
44137;SDS011;29800;55.942;37.314;2023-11-22T08:16:43;1.85;;;1.08;;
44137;SDS011;29800;55.942;37.314;2023-11-22T08:19:11;5.97;;;1.23;;
44137;SDS011;29800;55.942;37.314;2023-11-22T08:21:37;2.50;;;1.20;;
44137;SDS011;29800;55.942;37.314;2023-11-22T08:24:04;2.20;;;1.02;;
44137;SDS011;29800;55.942;37.314;2023-11-22T08:26:30;2.00;;;1.20;;
44137;SDS011;29800;55.942;37.314;2023-11-22T08:28:57;2.80;;;1.27;;
44137;SDS011;29800;55.942;37.314;2023-11-22T08:31:23;4.47;;;1.52;;
44137;SDS011;29800;55.942;37.314;2023-11-22T08:33:49;3.03;;;1.50;;
44137;SDS011;29800;55.942;37.314;2023-11-22T08:36:15;5.30;;;1.60;;
44137;SDS011;29800;55.942;37.314;2023-11-22T08:38:41;3.45;;;1.50;;
44137;SDS011;29800;55.942;37.314;2023-11-22T08:41:09;3.78;;;1.73;;
44137;SDS011;29800;55.942;37.314;2023-11-22T08:43:39;2.95;;;1.40;;
44137;SDS011;29800;55.942;37.314;2023-11-22T08:46:06;2.20;;;1.13;;
44137;SDS011;29800;55.942;37.314;2023-11-22T08:48:34;2.67;;;1.27;;
44137;SDS011;29800;55.942;37.314;2023-11-22T08:51:00;2.58;;;1.40;;
44137;SDS011;29800;55.942;37.314;2023-11-22T08:53:29;3.08;;;1.30;;
44137;SDS011;29800;55.942;37.314;2023-11-22T08:55:55;2.67;;;1.30;;
44137;SDS011;29800;55.942;37.314;2023-11-22T08:58:22;2.85;;;1.10;;
44137;SDS011;29800;55.942;37.314;2023-11-22T09:00:49;3.08;;;1.60;;
44137;SDS011;29800;55.942;37.314;2023-11-22T09:03:15;2.55;;;1.40;;
44137;SDS011;29800;55.942;37.314;2023-11-22T09:05:44;2.88;;;1.30;;
44137;SDS011;29800;55.942;37.314;2023-11-22T09:08:12;2.67;;;1.50;;
44137;SDS011;29800;55.942;37.314;2023-11-22T09:10:41;3.03;;;1.30;;
44137;SDS011;29800;55.942;37.314;2023-11-22T09:13:08;3.38;;;1.52;;
44137;SDS011;29800;55.942;37.314;2023-11-22T09:15:34;3.60;;;1.77;;
44137;SDS011;29800;55.942;37.314;2023-11-22T09:18:02;3.63;;;1.73;;
44137;SDS011;29800;55.942;37.314;2023-11-22T09:20:28;3.05;;;1.70;;
44137;SDS011;29800;55.942;37.314;2023-11-22T09:22:55;3.53;;;1.80;;
44137;SDS011;29800;55.942;37.314;2023-11-22T09:25:25;3.47;;;1.85;;
44137;SDS011;29800;55.942;37.314;2023-11-22T09:27:57;5.00;;;1.88;;
44137;SDS011;29800;55.942;37.314;2023-11-22T09:30:28;2.35;;;1.33;;
44137;SDS011;29800;55.942;37.314;2023-11-22T09:33:02;3.97;;;1.67;;
44137;SDS011;29800;55.942;37.314;2023-11-22T09:35:31;3.80;;;1.52;;
44137;SDS011;29800;55.942;37.314;2023-11-22T09:37:58;3.38;;;1.50;;
44137;SDS011;29800;55.942;37.314;2023-11-22T09:40:26;5.10;;;1.75;;
44137;SDS011;29800;55.942;37.314;2023-11-22T09:43:00;3.30;;;1.70;;
44137;SDS011;29800;55.942;37.314;2023-11-22T09:45:29;3.75;;;2.05;;
44137;SDS011;29800;55.942;37.314;2023-11-22T09:47:57;4.88;;;1.88;;
44137;SDS011;29800;55.942;37.314;2023-11-22T09:50:30;3.40;;;1.73;;
44137;SDS011;29800;55.942;37.314;2023-11-22T09:53:19;3.47;;;1.65;;
44137;SDS011;29800;55.942;37.314;2023-11-22T09:55:51;5.25;;;1.70;;
44137;SDS011;29800;55.942;37.314;2023-11-22T09:58:18;4.00;;;1.80;;
44137;SDS011;29800;55.942;37.314;2023-11-22T10:00:47;3.22;;;1.40;;
44137;SDS011;29800;55.942;37.314;2023-11-22T10:03:13;3.55;;;1.65;;
44137;SDS011;29800;55.942;37.314;2023-11-22T10:05:43;3.58;;;1.50;;
44137;SDS011;29800;55.942;37.314;2023-11-22T10:08:10;2.92;;;1.10;;
44137;SDS011;29800;55.942;37.314;2023-11-22T10:10:36;3.83;;;1.90;;
44137;SDS011;29800;55.942;37.314;2023-11-22T10:13:03;2.30;;;1.27;;
44137;SDS011;29800;55.942;37.314;2023-11-22T10:15:29;3.13;;;1.67;;
44137;SDS011;29800;55.942;37.314;2023-11-22T10:17:57;2.67;;;1.30;;
44137;SDS011;29800;55.942;37.314;2023-11-22T10:20:37;1.95;;;1.10;;
44137;SDS011;29800;55.942;37.314;2023-11-22T10:23:11;3.05;;;1.42;;
44137;SDS011;29800;55.942;37.314;2023-11-22T10:25:46;4.93;;;1.70;;
44137;SDS011;29800;55.942;37.314;2023-11-22T10:28:21;2.90;;;1.90;;
44137;SDS011;29800;55.942;37.314;2023-11-22T10:30:52;1.83;;;1.10;;
44137;SDS011;29800;55.942;37.314;2023-11-22T10:33:18;2.58;;;1.20;;
44137;SDS011;29800;55.942;37.314;2023-11-22T10:35:50;3.42;;;1.33;;
44137;SDS011;29800;55.942;37.314;2023-11-22T10:38:20;2.40;;;1.20;;
44137;SDS011;29800;55.942;37.314;2023-11-22T10:40:47;2.80;;;1.23;;
44137;SDS011;29800;55.942;37.314;2023-11-22T10:43:14;2.85;;;1.40;;
44137;SDS011;29800;55.942;37.314;2023-11-22T10:45:42;2.75;;;1.55;;
44137;SDS011;29800;55.942;37.314;2023-11-22T10:48:15;2.78;;;1.42;;
44137;SDS011;29800;55.942;37.314;2023-11-22T10:50:42;3.75;;;1.42;;
44137;SDS011;29800;55.942;37.314;2023-11-22T10:53:13;3.13;;;1.67;;
44137;SDS011;29800;55.942;37.314;2023-11-22T10:55:44;3.58;;;1.80;;
44137;SDS011;29800;55.942;37.314;2023-11-22T10:58:15;3.60;;;1.73;;
44137;SDS011;29800;55.942;37.314;2023-11-22T11:00:42;2.88;;;1.58;;
44137;SDS011;29800;55.942;37.314;2023-11-22T11:03:17;3.15;;;1.45;;
44137;SDS011;29800;55.942;37.314;2023-11-22T11:05:47;4.25;;;1.35;;
44137;SDS011;29800;55.942;37.314;2023-11-22T11:08:20;3.85;;;1.50;;
44137;SDS011;29800;55.942;37.314;2023-11-22T11:10:50;3.13;;;1.70;;
44137;SDS011;29800;55.942;37.314;2023-11-22T11:13:17;3.45;;;1.67;;
44137;SDS011;29800;55.942;37.314;2023-11-22T11:15:44;2.80;;;1.40;;
44137;SDS011;29800;55.942;37.314;2023-11-22T11:18:14;3.45;;;1.73;;
44137;SDS011;29800;55.942;37.314;2023-11-22T11:20:59;5.75;;;1.90;;
44137;SDS011;29800;55.942;37.314;2023-11-22T11:23:34;3.60;;;1.90;;
44137;SDS011;29800;55.942;37.314;2023-11-22T11:26:08;5.68;;;2.20;;
44137;SDS011;29800;55.942;37.314;2023-11-22T11:28:42;10.85;;;2.72;;
44137;SDS011;29800;55.942;37.314;2023-11-22T11:31:10;6.15;;;2.67;;
44137;SDS011;29800;55.942;37.314;2023-11-22T11:36:25;7.97;;;3.92;;
44137;SDS011;29800;55.942;37.314;2023-11-22T11:39:02;9.32;;;3.25;;
44137;SDS011;29800;55.942;37.314;2023-11-22T11:41:34;4.35;;;1.90;;
44137;SDS011;29800;55.942;37.314;2023-11-22T11:44:07;3.55;;;1.70;;
44137;SDS011;29800;55.942;37.314;2023-11-22T11:46:38;3.85;;;1.73;;
44137;SDS011;29800;55.942;37.314;2023-11-22T11:49:09;3.95;;;1.60;;
44137;SDS011;29800;55.942;37.314;2023-11-22T11:51:41;4.20;;;1.90;;
44137;SDS011;29800;55.942;37.314;2023-11-22T11:54:08;4.70;;;2.00;;
44137;SDS011;29800;55.942;37.314;2023-11-22T11:56:37;3.10;;;1.70;;
44137;SDS011;29800;55.942;37.314;2023-11-22T11:59:03;2.70;;;1.27;;
44137;SDS011;29800;55.942;37.314;2023-11-22T12:01:30;3.33;;;1.58;;
44137;SDS011;29800;55.942;37.314;2023-11-22T12:04:00;3.40;;;1.45;;
44137;SDS011;29800;55.942;37.314;2023-11-22T12:06:28;3.78;;;1.75;;
44137;SDS011;29800;55.942;37.314;2023-11-22T12:08:55;3.15;;;1.67;;
44137;SDS011;29800;55.942;37.314;2023-11-22T12:11:21;3.25;;;1.50;;
44137;SDS011;29800;55.942;37.314;2023-11-22T12:13:47;4.20;;;2.20;;
44137;SDS011;29800;55.942;37.314;2023-11-22T12:16:18;5.05;;;1.80;;
44137;SDS011;29800;55.942;37.314;2023-11-22T12:18:45;4.20;;;2.20;;
44137;SDS011;29800;55.942;37.314;2023-11-22T12:21:13;5.03;;;2.17;;
44137;SDS011;29800;55.942;37.314;2023-11-22T12:23:41;6.15;;;2.25;;
44137;SDS011;29800;55.942;37.314;2023-11-22T12:26:12;4.90;;;2.20;;
44137;SDS011;29800;55.942;37.314;2023-11-22T12:28:40;4.28;;;2.08;;
44137;SDS011;29800;55.942;37.314;2023-11-22T12:31:08;6.13;;;2.17;;
44137;SDS011;29800;55.942;37.314;2023-11-22T12:33:36;3.83;;;2.00;;
44137;SDS011;29800;55.942;37.314;2023-11-22T12:36:03;4.32;;;2.38;;
44137;SDS011;29800;55.942;37.314;2023-11-22T12:38:30;4.18;;;2.00;;
44137;SDS011;29800;55.942;37.314;2023-11-22T12:40:57;5.47;;;1.98;;
44137;SDS011;29800;55.942;37.314;2023-11-22T12:43:24;6.40;;;2.33;;
44137;SDS011;29800;55.942;37.314;2023-11-22T12:46:01;4.75;;;2.38;;
44137;SDS011;29800;55.942;37.314;2023-11-22T12:48:28;5.38;;;2.55;;
44137;SDS011;29800;55.942;37.314;2023-11-22T12:50:58;4.57;;;2.15;;
44137;SDS011;29800;55.942;37.314;2023-11-22T12:53:25;4.28;;;2.20;;
44137;SDS011;29800;55.942;37.314;2023-11-22T12:55:54;4.80;;;2.35;;
44137;SDS011;29800;55.942;37.314;2023-11-22T12:58:22;4.55;;;2.28;;
44137;SDS011;29800;55.942;37.314;2023-11-22T13:00:53;5.25;;;2.28;;
44137;SDS011;29800;55.942;37.314;2023-11-22T13:03:24;7.43;;;3.85;;
44137;SDS011;29800;55.942;37.314;2023-11-22T13:05:51;4.47;;;2.17;;
44137;SDS011;29800;55.942;37.314;2023-11-22T13:08:18;4.55;;;2.20;;
44137;SDS011;29800;55.942;37.314;2023-11-22T13:10:49;6.13;;;2.67;;
44137;SDS011;29800;55.942;37.314;2023-11-22T13:13:23;6.13;;;2.47;;
44137;SDS011;29800;55.942;37.314;2023-11-22T13:15:51;4.82;;;2.40;;
44137;SDS011;29800;55.942;37.314;2023-11-22T13:18:18;5.55;;;2.22;;
44137;SDS011;29800;55.942;37.314;2023-11-22T13:20:45;5.97;;;1.77;;
44137;SDS011;29800;55.942;37.314;2023-11-22T13:23:12;4.93;;;2.05;;
44137;SDS011;29800;55.942;37.314;2023-11-22T13:25:40;6.00;;;2.40;;
44137;SDS011;29800;55.942;37.314;2023-11-22T13:28:10;4.55;;;2.03;;
44137;SDS011;29800;55.942;37.314;2023-11-22T13:30:37;4.95;;;2.30;;
44137;SDS011;29800;55.942;37.314;2023-11-22T13:33:03;5.55;;;2.72;;
44137;SDS011;29800;55.942;37.314;2023-11-22T13:35:30;7.35;;;2.58;;
44137;SDS011;29800;55.942;37.314;2023-11-22T13:37:58;5.70;;;2.70;;
44137;SDS011;29800;55.942;37.314;2023-11-22T13:40:26;9.20;;;3.08;;
44137;SDS011;29800;55.942;37.314;2023-11-22T13:42:56;7.32;;;2.95;;
44137;SDS011;29800;55.942;37.314;2023-11-22T13:45:23;8.23;;;3.00;;
44137;SDS011;29800;55.942;37.314;2023-11-22T13:47:51;6.47;;;3.15;;
44137;SDS011;29800;55.942;37.314;2023-11-22T13:50:23;6.68;;;3.10;;
44137;SDS011;29800;55.942;37.314;2023-11-22T13:52:53;8.60;;;3.40;;
44137;SDS011;29800;55.942;37.314;2023-11-22T13:55:21;8.15;;;3.20;;
44137;SDS011;29800;55.942;37.314;2023-11-22T13:57:51;6.28;;;3.17;;
44137;SDS011;29800;55.942;37.314;2023-11-22T14:00:26;6.90;;;3.22;;
44137;SDS011;29800;55.942;37.314;2023-11-22T14:02:59;7.30;;;3.47;;
44137;SDS011;29800;55.942;37.314;2023-11-22T14:05:33;8.63;;;3.50;;
44137;SDS011;29800;55.942;37.314;2023-11-22T14:08:02;8.00;;;4.13;;
44137;SDS011;29800;55.942;37.314;2023-11-22T14:10:30;8.23;;;4.00;;
44137;SDS011;29800;55.942;37.314;2023-11-22T14:12:56;9.50;;;4.30;;
44137;SDS011;29800;55.942;37.314;2023-11-22T14:15:26;9.20;;;4.00;;
44137;SDS011;29800;55.942;37.314;2023-11-22T14:17:57;9.10;;;4.13;;
44137;SDS011;29800;55.942;37.314;2023-11-22T14:20:24;6.40;;;3.50;;
44137;SDS011;29800;55.942;37.314;2023-11-22T14:22:50;9.40;;;3.55;;
44137;SDS011;29800;55.942;37.314;2023-11-22T14:25:17;9.25;;;3.65;;
44137;SDS011;29800;55.942;37.314;2023-11-22T14:27:45;8.35;;;4.13;;
44137;SDS011;29800;55.942;37.314;2023-11-22T14:30:16;8.05;;;3.70;;
44137;SDS011;29800;55.942;37.314;2023-11-22T14:32:43;7.03;;;3.80;;
44137;SDS011;29800;55.942;37.314;2023-11-22T14:35:10;7.30;;;3.88;;
44137;SDS011;29800;55.942;37.314;2023-11-22T14:37:38;9.40;;;4.20;;
44137;SDS011;29800;55.942;37.314;2023-11-22T14:40:09;11.43;;;3.90;;